createdAt,value
2023-03-14T00:01:27.345Z,100203.81
2023-03-14T00:03:56.204Z,100200.19
2023-03-14T00:06:24.986Z,100205.50
2023-03-14T00:08:55.713Z,100190.69
2023-03-14T00:11:24.392Z,100185.19
2023-03-14T00:13:53.301Z,100197.66
2023-03-14T00:16:21.841Z,100188.72
2023-03-14T00:18:50.824Z,100182.53
2023-03-14T00:21:20.943Z,100192.34
2023-03-14T00:23:49.663Z,100191.38
2023-03-14T00:26:20.095Z,100172.06
2023-03-14T00:28:51.722Z,100173.03
2023-03-14T00:31:20.309Z,100168.72
2023-03-14T00:33:49.289Z,100157.78
2023-03-14T00:36:18.945Z,100148.13
2023-03-14T00:38:49.916Z,100152.59
2023-03-14T00:41:26.403Z,100131.31
2023-03-14T00:43:55.228Z,100116.34
2023-03-14T00:46:23.799Z,100095.22
2023-03-14T00:48:52.656Z,100089.91
2023-03-14T00:51:21.094Z,100076.72
2023-03-14T00:53:50.161Z,100075.63
2023-03-14T00:56:18.736Z,100071.28
2023-03-14T00:58:47.694Z,100066.78
2023-03-14T01:01:19.343Z,100061.59
2023-03-14T01:03:48.615Z,100058.13
2023-03-14T01:06:20.734Z,100046.50
2023-03-14T01:08:49.562Z,100037.84
2023-03-14T01:11:37.519Z,100050.97
2023-03-14T01:14:06.443Z,100046.78
2023-03-14T01:16:36.320Z,100056.16
2023-03-14T01:19:05.307Z,100050.13
2023-03-14T01:21:35.040Z,100048.31
2023-03-14T01:24:05.492Z,100050.13
2023-03-14T01:26:35.288Z,100038.66
2023-03-14T01:29:05.233Z,100016.56
2023-03-14T01:31:36.559Z,100018.38
2023-03-14T01:34:05.504Z,100015.69
2023-03-14T01:36:34.339Z,100012.22
2023-03-14T01:39:04.666Z,99999.91
2023-03-14T01:41:33.209Z,99996.41
2023-03-14T01:44:02.641Z,99978.66
2023-03-14T01:46:40.516Z,99988.28
2023-03-14T01:49:33.586Z,99983.97
2023-03-14T01:52:17.792Z,99963.66
2023-03-14T01:54:51.222Z,99956.50
2023-03-14T01:57:30.461Z,99954.72
2023-03-14T02:00:15.446Z,99932.88
2023-03-14T02:02:51.855Z,99936.94
2023-03-14T02:05:35.731Z,99928.13
2023-03-14T02:08:13.015Z,99930.78
2023-03-14T02:10:52.984Z,99925.59
2023-03-14T02:13:28.038Z,99893.69
2023-03-14T02:16:15.274Z,99891.16
2023-03-14T02:19:04.177Z,99900.84
2023-03-14T02:21:58.600Z,99899.97
2023-03-14T02:25:09.886Z,99908.66
2023-03-14T02:27:39.004Z,99894.53
2023-03-14T02:30:19.407Z,99885.84
2023-03-14T02:32:53.190Z,99881.38
2023-03-14T02:35:25.493Z,99890.19
2023-03-14T02:38:04.414Z,99868.06
2023-03-14T02:40:38.907Z,99861.09
2023-03-14T02:43:08.814Z,99872.56
2023-03-14T02:45:51.117Z,99884.19
2023-03-14T02:48:47.991Z,99879.00
2023-03-14T02:51:17.740Z,99862.91
2023-03-14T02:53:49.516Z,99872.69
2023-03-14T02:56:18.503Z,99878.88
2023-03-14T02:58:47.286Z,99858.44
2023-03-14T03:01:36.114Z,99860.25
2023-03-14T03:04:05.465Z,99879.84
2023-03-14T03:06:33.997Z,99876.34
2023-03-14T03:09:03.230Z,99849.91
2023-03-14T03:11:32.891Z,99840.94
2023-03-14T03:14:02.284Z,99845.28
2023-03-14T03:16:32.169Z,99850.59
2023-03-14T03:19:02.840Z,99867.38
2023-03-14T03:21:31.234Z,99850.59
2023-03-14T03:24:00.093Z,99838.44
2023-03-14T03:26:28.636Z,99825.28
2023-03-14T03:28:57.507Z,99819.66
2023-03-14T03:31:25.996Z,99787.94
2023-03-14T03:33:55.262Z,99756.84
2023-03-14T03:36:25.219Z,99740.91
2023-03-14T03:38:54.155Z,99736.72
2023-03-14T03:41:22.834Z,99741.03
2023-03-14T03:43:53.159Z,99744.25
2023-03-14T03:46:22.258Z,99756.84
2023-03-14T03:48:59.861Z,99740.06
2023-03-14T03:51:29.820Z,99732.25
2023-03-14T03:53:59.600Z,99747.19
2023-03-14T03:56:32.821Z,99739.22
2023-03-14T03:59:02.662Z,99741.03
2023-03-14T04:01:31.099Z,99755.47
2023-03-14T04:04:02.736Z,99721.91
2023-03-14T04:06:31.566Z,99722.75
2023-03-14T04:09:02.764Z,99736.72
2023-03-14T04:11:49.223Z,99728.06
2023-03-14T04:14:38.513Z,99724.41
2023-03-14T04:17:13.747Z,99704.81
2023-03-14T04:19:43.360Z,99694.19
2023-03-14T04:22:12.922Z,99702.16
2023-03-14T04:24:52.173Z,99691.53
2023-03-14T04:27:22.708Z,99658.09
2023-03-14T04:29:51.654Z,99649.13
2023-03-14T04:32:27.703Z,99681.88
2023-03-14T04:34:58.082Z,99681.03
2023-03-14T04:37:26.754Z,99658.25
2023-03-14T04:39:56.479Z,99663.41
2023-03-14T04:42:30.168Z,99663.41
2023-03-14T04:44:59.457Z,99659.78
2023-03-14T04:47:30.740Z,99644.97
2023-03-14T04:50:00.356Z,99643.13
2023-03-14T04:52:29.387Z,99634.34
2023-03-14T04:54:59.383Z,99641.31
2023-03-14T04:57:28.725Z,99631.50
2023-03-14T04:59:58.268Z,99616.41
2023-03-14T05:03:05.142Z,99609.41
2023-03-14T05:06:12.730Z,99606.91
2023-03-14T05:08:47.273Z,99609.41
2023-03-14T05:11:25.096Z,99599.59
2023-03-14T05:14:02.800Z,99590.66
2023-03-14T05:16:50.339Z,99580.56
2023-03-14T05:19:37.277Z,99572.09
2023-03-14T05:22:26.669Z,99587.28
2023-03-14T05:25:18.309Z,99581.88
2023-03-14T05:28:10.370Z,99568.63
2023-03-14T05:30:56.253Z,99565.84
2023-03-14T05:33:36.148Z,99559.06
2023-03-14T05:36:24.913Z,99563.78
2023-03-14T05:39:13.935Z,99550.31
2023-03-14T05:42:11.486Z,99546.84
2023-03-14T05:45:00.056Z,99574.28
2023-03-14T05:47:47.084Z,99612.69
2023-03-14T05:50:26.117Z,99633.97
2023-03-14T05:53:32.887Z,99639.97
2023-03-14T05:56:22.122Z,99668.56
2023-03-14T05:59:04.539Z,99680.28
2023-03-14T06:01:44.673Z,99680.28
2023-03-14T06:04:18.594Z,99692.78
2023-03-14T06:06:52.507Z,99706.91
2023-03-14T06:09:23.693Z,99699.09
2023-03-14T06:11:54.430Z,99688.47
2023-03-14T06:14:23.700Z,99688.75
2023-03-14T06:16:55.319Z,99687.78
2023-03-14T06:19:27.264Z,99675.59
2023-03-14T06:21:56.186Z,99653.50
2023-03-14T06:24:27.515Z,99644.84
2023-03-14T06:26:56.871Z,99645.13
2023-03-14T06:29:25.465Z,99645.13
2023-03-14T06:31:54.606Z,99640.66
2023-03-14T06:34:23.365Z,99643.47
2023-03-14T06:36:52.386Z,99653.28
2023-03-14T06:39:21.040Z,99645.47
2023-03-14T06:41:55.144Z,99655.09
2023-03-14T06:44:24.411Z,99657.91
2023-03-14T06:46:53.261Z,99651.91
2023-03-14T06:49:22.141Z,99667.03
2023-03-14T06:51:54.456Z,99666.06
2023-03-14T06:54:23.002Z,99652.75
2023-03-14T06:56:51.813Z,99644.09
2023-03-14T06:59:20.243Z,99642.75
2023-03-14T07:01:52.102Z,99630.94
2023-03-14T07:04:20.808Z,99631.09
2023-03-14T07:06:51.431Z,99625.09
2023-03-14T07:09:20.022Z,99621.47
2023-03-14T07:12:00.961Z,99615.28
2023-03-14T07:14:29.778Z,99613.63
2023-03-14T07:16:58.664Z,99603.00
2023-03-14T07:19:27.310Z,99596.00
2023-03-14T07:21:56.143Z,99594.16
2023-03-14T07:24:27.377Z,99593.47
2023-03-14T07:26:56.343Z,99589.84
2023-03-14T07:29:25.075Z,99589.84
2023-03-14T07:31:55.202Z,99605.81
2023-03-14T07:34:24.885Z,99597.16
2023-03-14T07:36:53.993Z,99604.13
2023-03-14T07:39:22.904Z,99602.47
2023-03-14T07:42:12.331Z,99595.47
2023-03-14T07:45:01.045Z,99605.13
2023-03-14T07:47:29.953Z,99613.78
2023-03-14T07:49:58.517Z,99602.13
2023-03-14T07:52:27.519Z,99599.81
2023-03-14T07:54:56.213Z,99597.28
2023-03-14T07:57:25.470Z,99604.44
2023-03-14T07:59:54.127Z,99599.13
2023-03-14T08:02:25.199Z,99596.47
2023-03-14T08:04:53.767Z,99595.78
2023-03-14T08:07:22.695Z,99587.81
2023-03-14T08:09:51.255Z,99585.97
2023-03-14T08:12:20.178Z,99595.94
2023-03-14T08:14:48.641Z,99591.63
2023-03-14T08:17:17.463Z,99582.44
2023-03-14T08:19:46.016Z,99579.50
2023-03-14T08:22:16.004Z,99588.75
2023-03-14T08:24:45.486Z,99600.59
2023-03-14T08:27:16.166Z,99606.28
2023-03-14T08:29:45.028Z,99607.97
2023-03-14T08:32:14.190Z,99598.00
2023-03-14T08:34:42.778Z,99600.66
2023-03-14T08:37:23.840Z,99603.31
2023-03-14T08:39:54.999Z,99588.19
2023-03-14T08:42:23.853Z,99586.41
2023-03-14T08:44:53.239Z,99585.53
2023-03-14T08:47:22.155Z,99582.06
2023-03-14T08:49:50.605Z,99580.06
2023-03-14T08:52:19.551Z,99585.41
2023-03-14T08:54:48.267Z,99588.06
2023-03-14T08:57:17.387Z,99586.41
2023-03-14T08:59:45.912Z,99582.72
2023-03-14T09:02:15.184Z,99585.41
2023-03-14T09:04:43.867Z,99586.41
2023-03-14T09:07:12.773Z,99570.59
2023-03-14T09:09:41.467Z,99581.09
2023-03-14T09:12:10.302Z,99595.19
2023-03-14T09:14:39.116Z,99598.97
2023-03-14T09:17:08.981Z,99600.66
2023-03-14T09:19:37.654Z,99605.97
2023-03-14T09:22:06.734Z,99608.66
2023-03-14T09:24:35.304Z,99612.13
2023-03-14T09:27:04.607Z,99613.00
2023-03-14T09:29:33.284Z,99609.63
2023-03-14T09:32:02.523Z,99612.13
2023-03-14T09:34:31.241Z,99627.25
2023-03-14T09:37:00.719Z,99614.78
2023-03-14T09:39:29.283Z,99617.44
2023-03-14T09:41:59.229Z,99610.63
2023-03-14T09:44:31.026Z,99608.50
2023-03-14T09:47:08.646Z,99613.00
2023-03-14T09:49:40.855Z,99615.78
2023-03-14T09:52:18.292Z,99626.44
2023-03-14T09:54:55.473Z,99618.59
2023-03-14T09:57:26.771Z,99607.13
2023-03-14T09:59:58.896Z,99615.94
2023-03-14T10:02:36.793Z,99626.72
2023-03-14T10:05:19.545Z,99614.56
2023-03-14T10:07:48.541Z,99617.09
2023-03-14T10:10:22.685Z,99615.25
2023-03-14T10:13:23.209Z,99632.03
2023-03-14T10:15:57.358Z,99631.50
2023-03-14T10:18:29.122Z,99618.22
2023-03-14T10:21:09.146Z,99610.25
2023-03-14T10:23:38.409Z,99608.59
2023-03-14T10:26:08.486Z,99615.56
2023-03-14T10:28:54.206Z,99604.25
2023-03-14T10:31:28.914Z,99591.81
2023-03-14T10:34:05.780Z,99601.59
2023-03-14T10:36:36.246Z,99599.94
2023-03-14T10:39:28.370Z,99597.13
2023-03-14T10:42:22.185Z,99575.00
2023-03-14T10:44:57.278Z,99564.38
2023-03-14T10:47:27.712Z,99554.75
2023-03-14T10:49:58.008Z,99557.06
2023-03-14T10:52:35.858Z,99561.69
2023-03-14T10:55:15.025Z,99567.88
2023-03-14T10:57:44.160Z,99562.72
2023-03-14T11:00:24.005Z,99555.41
2023-03-14T11:03:14.043Z,99546.75
2023-03-14T11:05:59.206Z,99545.91
2023-03-14T11:08:41.851Z,99550.38
2023-03-14T11:11:30.990Z,99570.84
2023-03-14T11:14:18.141Z,99575.31
2023-03-14T11:17:01.287Z,99573.50
2023-03-14T11:20:10.851Z,99564.69
2023-03-14T11:22:43.642Z,99551.53
2023-03-14T11:25:28.800Z,99544.41
2023-03-14T11:28:47.883Z,99540.09
2023-03-14T11:31:25.254Z,99524.97
2023-03-14T11:34:06.396Z,99518.50
2023-03-14T11:36:45.665Z,99533.63
2023-03-14T11:39:19.475Z,99524.81
2023-03-14T11:41:52.217Z,99526.78
2023-03-14T11:44:33.572Z,99531.72
2023-03-14T11:47:17.304Z,99526.78
2023-03-14T11:50:00.188Z,99526.13
2023-03-14T11:52:44.376Z,99524.44
2023-03-14T11:55:41.442Z,99527.91
2023-03-14T11:58:32.226Z,99520.81
2023-03-14T12:01:08.000Z,99502.34
2023-03-14T12:03:57.179Z,99495.06
2023-03-14T12:06:49.534Z,99488.91
2023-03-14T12:09:21.992Z,99488.91
2023-03-14T12:11:59.908Z,99485.25
2023-03-14T12:14:33.439Z,99488.72
2023-03-14T12:17:36.281Z,99487.75
2023-03-14T12:20:23.834Z,99495.06
2023-03-14T12:23:04.177Z,99490.56
2023-03-14T12:25:34.507Z,99469.28
2023-03-14T12:28:18.418Z,99472.63
2023-03-14T12:30:46.894Z,99465.66
2023-03-14T12:33:18.422Z,99452.53
2023-03-14T12:36:04.021Z,99447.19
2023-03-14T12:38:44.933Z,99441.88
2023-03-14T12:41:38.846Z,99447.72
2023-03-14T12:44:32.847Z,99446.88
2023-03-14T12:47:02.167Z,99446.88
2023-03-14T12:49:34.140Z,99435.41
2023-03-14T12:52:03.430Z,99430.94
2023-03-14T12:54:49.821Z,99427.28
2023-03-14T12:57:41.597Z,99423.13
2023-03-14T13:00:36.096Z,99425.59
2023-03-14T13:03:23.566Z,99420.13
2023-03-14T13:05:59.683Z,99417.47
2023-03-14T13:08:43.316Z,99427.13
2023-03-14T13:11:20.742Z,99415.66
2023-03-14T13:13:57.293Z,99427.81
2023-03-14T13:16:26.247Z,99431.59
2023-03-14T13:19:28.176Z,99425.47
2023-03-14T13:22:30.667Z,99428.13
2023-03-14T13:25:05.143Z,99419.16
2023-03-14T13:27:36.062Z,99407.38
2023-03-14T13:30:27.764Z,99393.94
2023-03-14T13:32:57.077Z,99394.97
2023-03-14T13:35:30.854Z,99391.31
2023-03-14T13:38:17.630Z,99392.97
2023-03-14T13:40:46.787Z,99397.00
2023-03-14T13:43:22.957Z,99400.16
2023-03-14T13:46:15.913Z,99398.53
2023-03-14T13:48:53.953Z,99400.38
2023-03-14T13:51:22.802Z,99394.28
2023-03-14T13:53:56.638Z,99394.28
2023-03-14T13:56:28.270Z,99395.06
2023-03-14T13:58:57.613Z,99395.09
2023-03-14T14:01:33.790Z,99400.09
2023-03-14T14:04:15.422Z,99402.50
2023-03-14T14:06:52.418Z,99385.03
2023-03-14T14:09:44.720Z,99381.03
2023-03-14T14:12:22.813Z,99372.78
2023-03-14T14:14:59.726Z,99372.28
2023-03-14T14:17:34.699Z,99361.66
2023-03-14T14:20:06.628Z,99369.47
2023-03-14T14:22:35.240Z,99358.06
2023-03-14T14:25:04.542Z,99361.38
2023-03-14T14:27:40.536Z,99354.09
2023-03-14T14:30:21.123Z,99362.84
2023-03-14T14:32:51.331Z,99350.69
2023-03-14T14:35:36.495Z,99352.06
2023-03-14T14:38:14.204Z,99360.06
2023-03-14T14:40:47.663Z,99350.81
2023-03-14T14:43:22.432Z,99352.19
2023-03-14T14:45:53.131Z,99350.34
2023-03-14T14:48:26.966Z,99356.13
2023-03-14T14:51:05.122Z,99352.47
2023-03-14T14:53:44.025Z,99356.09
2023-03-14T14:56:28.843Z,99344.47
2023-03-14T14:59:03.215Z,99347.47
2023-03-14T15:01:40.603Z,99354.13
2023-03-14T15:04:16.117Z,99352.47
2023-03-14T15:06:48.151Z,99337.50
2023-03-14T15:09:18.482Z,99335.69
2023-03-14T15:11:49.172Z,99341.34
2023-03-14T15:14:17.794Z,99343.19
2023-03-14T15:16:47.085Z,99342.19
2023-03-14T15:19:26.018Z,99339.34
2023-03-14T15:21:55.251Z,99341.88
2023-03-14T15:24:23.951Z,99340.38
2023-03-14T15:26:53.172Z,99332.84
2023-03-14T15:29:21.742Z,99331.03
2023-03-14T15:31:50.778Z,99331.84
2023-03-14T15:34:19.400Z,99333.00
2023-03-14T15:36:48.354Z,99328.16
2023-03-14T15:39:17.173Z,99326.19
2023-03-14T15:41:46.209Z,99322.84
2023-03-14T15:44:14.756Z,99328.50
2023-03-14T15:46:43.585Z,99327.50
2023-03-14T15:49:12.081Z,99313.53
2023-03-14T15:51:40.912Z,99328.16
2023-03-14T15:54:09.465Z,99330.81
2023-03-14T15:56:40.430Z,99325.16
2023-03-14T15:59:09.477Z,99324.00
2023-03-14T16:01:38.784Z,99314.47
2023-03-14T16:04:07.721Z,99324.13
2023-03-14T16:06:38.171Z,99326.81
2023-03-14T16:09:06.910Z,99325.97
2023-03-14T16:11:36.238Z,99321.78
2023-03-14T16:14:04.947Z,99323.78
2023-03-14T16:16:34.117Z,99330.09
2023-03-14T16:19:03.218Z,99334.09
2023-03-14T16:21:33.889Z,99334.09
2023-03-14T16:24:03.566Z,99336.75
2023-03-14T16:26:35.360Z,99326.94
2023-03-14T16:29:04.389Z,99332.28
2023-03-14T16:31:33.592Z,99330.44
2023-03-14T16:34:04.287Z,99335.91
2023-03-14T16:36:33.639Z,99337.75
2023-03-14T16:39:02.165Z,99335.22
2023-03-14T16:41:31.876Z,99337.06
2023-03-14T16:44:02.040Z,99333.72
2023-03-14T16:46:31.450Z,99342.53
2023-03-14T16:49:00.247Z,99331.06
2023-03-14T16:51:29.354Z,99340.88
2023-03-14T16:53:57.966Z,99345.38
2023-03-14T16:56:26.967Z,99333.38
2023-03-14T16:58:55.627Z,99348.19
2023-03-14T17:01:24.500Z,99345.38
2023-03-14T17:03:53.314Z,99348.19
2023-03-14T17:06:28.181Z,99351.66
2023-03-14T17:08:57.991Z,99352.69
2023-03-14T17:11:27.165Z,99348.34
2023-03-14T17:13:55.733Z,99355.50
2023-03-14T17:16:25.013Z,99348.34
2023-03-14T17:18:53.902Z,99348.50
2023-03-14T17:21:23.651Z,99348.66
2023-03-14T17:23:52.247Z,99349.66
2023-03-14T17:26:21.254Z,99356.63
2023-03-14T17:28:49.782Z,99354.16
2023-03-14T17:31:19.625Z,99359.47
2023-03-14T17:33:48.202Z,99370.09
2023-03-14T17:36:18.265Z,99378.06
2023-03-14T17:38:46.834Z,99374.53
2023-03-14T17:41:16.401Z,99378.22
2023-03-14T17:43:46.113Z,99390.50
2023-03-14T17:46:15.961Z,99395.81
2023-03-14T17:48:45.853Z,99402.28
2023-03-14T17:51:15.256Z,99403.97
2023-03-14T17:53:43.974Z,99404.94
2023-03-14T17:56:12.917Z,99413.72
2023-03-14T17:58:44.461Z,99410.09
2023-03-14T18:01:21.403Z,99418.06
2023-03-14T18:03:50.000Z,99420.88
2023-03-14T18:06:19.067Z,99422.38
2023-03-14T18:08:47.501Z,99419.91
2023-03-14T18:11:17.161Z,99420.72
2023-03-14T18:13:45.897Z,99422.56
2023-03-14T18:16:14.847Z,99428.03
2023-03-14T18:18:47.148Z,99430.00
2023-03-14T18:21:18.082Z,99436.16
2023-03-14T18:23:48.897Z,99443.97
2023-03-14T18:26:18.210Z,99446.78
2023-03-14T18:28:47.377Z,99452.91
2023-03-14T18:31:19.061Z,99458.22
2023-03-14T18:33:49.738Z,99457.41
2023-03-14T18:36:18.744Z,99458.22
2023-03-14T18:38:48.698Z,99456.44
2023-03-14T18:41:20.212Z,99441.63
2023-03-14T18:43:48.729Z,99446.09
2023-03-14T18:46:17.866Z,99451.41
2023-03-14T18:48:46.996Z,99454.22
2023-03-14T18:51:16.369Z,99449.91
2023-03-14T18:53:45.646Z,99448.91
2023-03-14T18:56:14.820Z,99454.22
2023-03-14T18:58:43.504Z,99454.22
2023-03-14T19:01:12.882Z,99454.38
2023-03-14T19:03:42.613Z,99453.69
2023-03-14T19:06:12.931Z,99455.38
2023-03-14T19:08:43.371Z,99455.38
2023-03-14T19:11:13.513Z,99456.34
2023-03-14T19:13:42.390Z,99458.03
2023-03-14T19:16:15.009Z,99462.53
2023-03-14T19:18:43.831Z,99458.19
2023-03-14T19:21:13.662Z,99459.19
2023-03-14T19:23:44.118Z,99468.81
2023-03-14T19:26:16.442Z,99480.44
2023-03-14T19:28:45.015Z,99474.28
2023-03-14T19:31:14.321Z,99476.94
2023-03-14T19:33:43.400Z,99478.75
2023-03-14T19:36:33.775Z,99480.59
2023-03-14T19:39:02.666Z,99485.75
2023-03-14T19:41:31.964Z,99487.56
2023-03-14T19:44:01.231Z,99488.72
2023-03-14T19:46:33.332Z,99499.88
2023-03-14T19:49:01.975Z,99501.69
2023-03-14T19:51:31.675Z,99504.56
2023-03-14T19:54:03.556Z,99506.53
2023-03-14T19:56:33.641Z,99510.72
2023-03-14T19:59:05.093Z,99510.03
2023-03-14T20:01:35.551Z,99514.50
2023-03-14T20:04:07.069Z,99519.84
2023-03-14T20:06:36.247Z,99524.47
2023-03-14T20:09:06.129Z,99536.59
2023-03-14T20:11:40.409Z,99540.41
2023-03-14T20:14:09.842Z,99535.91
2023-03-14T20:16:39.242Z,99531.28
2023-03-14T20:19:09.948Z,99529.09
2023-03-14T20:21:39.063Z,99534.03
2023-03-14T20:24:08.194Z,99538.38
2023-03-14T20:26:38.355Z,99541.16
2023-03-14T20:29:08.127Z,99532.53
2023-03-14T20:31:39.224Z,99518.22
2023-03-14T20:34:07.911Z,99508.75
2023-03-14T20:36:38.340Z,99493.66
2023-03-14T20:39:07.947Z,99493.97
2023-03-14T20:41:43.093Z,99500.94
2023-03-14T20:44:14.213Z,99503.59
2023-03-14T20:46:46.648Z,99507.09
2023-03-14T20:49:15.471Z,99517.88
2023-03-14T20:51:45.827Z,99521.34
2023-03-14T20:54:14.507Z,99528.19
2023-03-14T20:56:46.836Z,99513.25
2023-03-14T20:59:16.441Z,99505.41
2023-03-14T21:04:54.128Z,99503.59
2023-03-14T21:07:24.121Z,99505.56
2023-03-14T21:09:52.876Z,99504.59
2023-03-14T21:12:22.206Z,99501.94
2023-03-14T21:14:51.788Z,99500.25
2023-03-14T21:17:22.298Z,99499.28
2023-03-14T21:19:58.695Z,99492.28
2023-03-14T21:22:29.778Z,99494.94
2023-03-14T21:24:58.277Z,99502.09
2023-03-14T21:27:27.196Z,99505.72
2023-03-14T21:29:55.690Z,99500.41
2023-03-14T21:32:24.523Z,99509.22
2023-03-14T21:34:53.496Z,99503.91
2023-03-14T21:37:22.668Z,99513.69
2023-03-14T21:39:51.332Z,99519.00
2023-03-14T21:42:20.589Z,99530.63
2023-03-14T21:44:49.110Z,99523.63
2023-03-14T21:47:18.357Z,99525.31
2023-03-14T21:49:47.328Z,99520.81
2023-03-14T21:52:16.059Z,99525.31
2023-03-14T21:54:44.498Z,99529.78
2023-03-14T21:57:14.595Z,99531.59
2023-03-14T21:59:44.901Z,99526.47
2023-03-14T22:02:18.328Z,99530.06
2023-03-14T22:04:46.903Z,99535.13
2023-03-14T22:07:18.592Z,99531.78
2023-03-14T22:09:47.787Z,99540.69
2023-03-14T22:12:19.579Z,99544.16
2023-03-14T22:14:48.801Z,99547.72
2023-03-14T22:17:20.531Z,99550.47
2023-03-14T22:19:49.022Z,99545.06
2023-03-14T22:22:18.110Z,99548.66
2023-03-14T22:24:46.702Z,99553.03
2023-03-14T22:27:15.566Z,99557.63
2023-03-14T22:29:44.080Z,99557.63
2023-03-14T22:32:12.988Z,99557.44
2023-03-14T22:34:41.476Z,99557.44
2023-03-14T22:37:12.888Z,99548.78
2023-03-14T22:39:41.547Z,99552.31
2023-03-14T22:42:10.629Z,99548.78
2023-03-14T22:44:39.160Z,99541.81
2023-03-14T22:47:08.064Z,99545.31
2023-03-14T22:49:36.518Z,99538.16
2023-03-14T22:52:05.722Z,99533.88
2023-03-14T22:54:34.165Z,99530.38
2023-03-14T22:57:02.992Z,99528.69
2023-03-14T22:59:31.455Z,99530.38
2023-03-14T23:02:00.460Z,99541.81
2023-03-14T23:04:29.021Z,99550.09
2023-03-14T23:06:58.097Z,99560.56
2023-03-14T23:09:26.715Z,99561.41
2023-03-14T23:11:55.862Z,99557.09
2023-03-14T23:14:24.348Z,99562.41
2023-03-14T23:16:56.170Z,99566.84
2023-03-14T23:19:26.235Z,99570.38
2023-03-14T23:21:55.673Z,99564.19
2023-03-14T23:24:24.209Z,99567.72
2023-03-14T23:26:54.381Z,99571.19
2023-03-14T23:29:22.825Z,99575.69
2023-03-14T23:31:51.744Z,99575.81
2023-03-14T23:34:20.757Z,99587.28
2023-03-14T23:36:49.597Z,99592.59
2023-03-14T23:39:18.069Z,99596.25
2023-03-14T23:41:47.191Z,99598.03
2023-03-14T23:44:15.698Z,99605.19
2023-03-14T23:46:44.498Z,99615.66
2023-03-14T23:49:13.410Z,99609.53
2023-03-14T23:51:42.208Z,99610.50
2023-03-14T23:54:10.697Z,99618.47
2023-03-14T23:56:41.393Z,99617.63
2023-03-14T23:59:09.936Z,99612.31
